Time;durP1;ratioP1;P1;durP2;ratioP2;P2;SDS_P1;SDS_P2;PMS_P1;PMS_P2;Temp;Humidity;BMP_temperature;BMP_pressure;BME280_temperature;BME280_humidity;BME280_pressure;Samples;Min_cycle;Max_cycle;Signal;HPM_P1;HPM_P2
2022/10/30 00:01:16;;;;;;;24.27;9.80;;;;;;;17.12;100.00;101309.59;5074672;28;20048;-74
2022/10/30 00:03:42;;;;;;;25.42;8.90;;;;;;;17.10;100.00;101308.41;5085617;28;20071;-74
2022/10/30 00:06:08;;;;;;;22.27;8.88;;;;;;;17.07;100.00;101312.06;5074696;28;20055;-74
2022/10/30 00:08:35;;;;;;;25.27;9.13;;;;;;;17.01;100.00;101302.63;5088780;28;20051;-74
2022/10/30 00:11:15;;;;;;;27.52;9.70;;;;;;;16.99;100.00;101299.44;5076152;28;20061;-74
2022/10/30 00:13:43;;;;;;;22.67;8.88;;;;;;;17.00;100.00;101307.41;5083793;28;20062;-74
2022/10/30 00:16:10;;;;;;;26.95;8.93;;;;;;;16.95;100.00;101298.72;5088006;28;20051;-73
2022/10/30 00:18:38;;;;;;;23.67;9.15;;;;;;;16.86;100.00;101304.88;5072550;28;20666;-75
2022/10/30 00:21:11;;;;;;;27.83;8.35;;;;;;;16.86;100.00;101312.44;5082498;28;20942;-73
2022/10/30 00:23:39;;;;;;;19.98;9.13;;;;;;;16.83;100.00;101308.50;5083508;28;20846;-73
2022/10/30 00:26:06;;;;;;;24.40;9.55;;;;;;;16.82;100.00;101306.13;5088227;27;20384;-76
2022/10/30 00:28:33;;;;;;;20.70;9.15;;;;;;;16.81;100.00;101313.72;5081710;28;20043;-75
2022/10/30 00:31:04;;;;;;;22.25;8.65;;;;;;;16.78;100.00;101316.59;5080409;28;20148;-72
2022/10/30 00:33:31;;;;;;;23.58;9.13;;;;;;;16.77;100.00;101317.81;5078233;28;20048;-73
2022/10/30 00:35:58;;;;;;;23.00;10.18;;;;;;;16.76;100.00;101319.00;5075723;28;21133;-74
2022/10/30 00:38:25;;;;;;;23.80;10.27;;;;;;;16.74;100.00;101319.44;5078748;28;20047;-76
2022/10/30 00:40:52;;;;;;;19.08;8.50;;;;;;;16.71;100.00;101317.47;5086188;28;20055;-76
2022/10/30 00:43:32;;;;;;;20.13;8.98;;;;;;;16.70;100.00;101315.13;5083215;28;20052;-72
2022/10/30 00:46:21;;;;;;;22.52;8.95;;;;;;;16.70;100.00;101315.13;5084731;27;20059;-72
2022/10/30 00:48:58;;;;;;;21.42;9.70;;;;;;;16.68;100.00;101312.78;5083677;28;20047;-73
2022/10/30 00:51:27;;;;;;;26.55;9.70;;;;;;;16.69;100.00;101311.56;5076394;28;20052;-72
2022/10/30 00:53:56;;;;;;;25.33;10.40;;;;;;;16.68;100.00;101320.34;5073265;28;20040;-73
2022/10/30 00:56:23;;;;;;;24.25;9.70;;;;;;;16.60;100.00;101311.28;5075005;28;20059;-75
2022/10/30 00:58:57;;;;;;;22.40;9.15;;;;;;;16.64;100.00;101314.03;5085080;27;20054;-75
2022/10/30 01:01:26;;;;;;;21.40;9.20;;;;;;;16.62;100.00;101306.06;5077475;28;20043;-72
2022/10/30 01:03:56;;;;;;;19.33;9.57;;;;;;;16.60;100.00;101308.50;5089317;28;20088;-72
2022/10/30 01:06:24;;;;;;;20.50;9.20;;;;;;;16.60;100.00;101316.09;5085099;28;20064;-73
2022/10/30 01:08:53;;;;;;;29.00;11.93;;;;;;;16.58;100.00;101310.13;5082919;28;20049;-71
2022/10/30 01:11:25;;;;;;;23.83;9.65;;;;;;;16.53;100.00;101311.41;5083029;28;20067;-72
2022/10/30 01:13:56;;;;;;;23.92;9.48;;;;;;;16.55;100.00;101302.59;5073047;28;20040;-73
2022/10/30 01:16:36;;;;;;;21.58;10.77;;;;;;;16.52;100.00;101309.03;5082922;28;20923;-71
2022/10/30 01:19:14;;;;;;;23.00;9.73;;;;;;;16.45;100.00;101300.78;5084122;28;20043;-73
2022/10/30 01:22:02;;;;;;;22.58;9.85;;;;;;;16.44;100.00;101302.75;5074648;28;20048;-72
2022/10/30 01:24:44;;;;;;;17.60;8.80;;;;;;;16.38;100.00;101303.66;5076967;28;20336;-72
2022/10/30 01:27:26;;;;;;;24.38;9.80;;;;;;;16.37;100.00;101305.63;5076487;28;20552;-75
2022/10/30 01:30:05;;;;;;;23.10;9.45;;;;;;;16.35;100.00;101305.28;5073156;28;20872;-75
2022/10/30 01:32:34;;;;;;;21.20;9.32;;;;;;;16.29;100.00;101303.38;5075593;28;20055;-74
2022/10/30 01:35:30;;;;;;;22.13;9.90;;;;;;;16.19;100.00;101307.13;5079285;28;20036;-73
2022/10/30 01:38:12;;;;;;;24.58;10.10;;;;;;;16.09;100.00;101311.66;5075389;28;20047;-75
2022/10/30 01:40:39;;;;;;;22.88;9.98;;;;;;;16.08;100.00;101314.84;5094148;28;20043;-72
2022/10/30 01:43:11;;;;;;;19.85;9.13;;;;;;;16.10;100.00;101307.63;5096735;28;20043;-71
2022/10/30 01:46:08;;;;;;;24.45;10.45;;;;;;;16.11;100.00;101312.03;5107053;28;20089;-74
2022/10/30 01:48:52;;;;;;;21.55;9.43;;;;;;;16.11;100.00;101312.03;5101038;28;20059;-71
2022/10/30 01:51:44;;;;;;;22.15;9.63;;;;;;;16.13;100.00;101314.41;5091888;28;20043;-74
2022/10/30 01:54:16;;;;;;;24.30;9.95;;;;;;;16.13;100.00;101317.19;5100621;28;20043;-72
2022/10/30 01:57:17;;;;;;;24.88;8.07;;;;;;;16.12;100.00;101310.81;5097882;28;20093;-73
2022/10/30 01:59:57;;;;;;;22.98;8.43;;;;;;;16.10;100.00;101306.88;5090955;28;20048;-73
2022/10/30 02:02:23;;;;;;;23.55;8.90;;;;;;;16.09;100.00;101302.47;5097006;28;20536;-71
2022/10/30 02:04:50;;;;;;;27.80;9.32;;;;;;;16.02;100.00;101303.38;5090242;28;20131;-76
2022/10/30 02:07:17;;;;;;;21.58;8.80;;;;;;;15.99;100.00;101309.03;5095918;28;20046;-70
2022/10/30 02:09:44;;;;;;;26.38;9.52;;;;;;;15.98;100.00;101304.63;5098811;28;20055;-74
2022/10/30 02:12:10;;;;;;;26.65;8.82;;;;;;;15.95;100.00;101299.88;5102665;28;20054;-74
2022/10/30 02:14:41;;;;;;;30.40;9.32;;;;;;;15.91;100.00;101307.53;5100431;28;20054;-73
2022/10/30 02:17:11;;;;;;;24.92;8.48;;;;;;;15.84;100.00;101297.25;5093864;28;20043;-73
2022/10/30 02:19:39;;;;;;;21.05;9.32;;;;;;;15.86;100.00;101302.41;5102158;28;20566;-73
2022/10/30 02:22:05;;;;;;;20.33;9.82;;;;;;;15.72;100.00;101294.25;5100193;28;20051;-74
2022/10/30 02:24:32;;;;;;;24.02;9.23;;;;;;;15.75;100.00;101304.53;5104123;28;20075;-71
2022/10/30 02:26:58;;;;;;;23.23;8.75;;;;;;;15.73;100.00;101304.97;5100913;28;20047;-74
2022/10/30 02:29:25;;;;;;;20.13;7.68;;;;;;;15.71;100.00;101301.00;5101768;28;20059;-74
2022/10/30 02:31:52;;;;;;;20.48;7.78;;;;;;;15.70;100.00;101299.44;5088705;28;20044;-72
2022/10/30 02:34:22;;;;;;;22.30;8.85;;;;;;;15.59;100.00;101299.56;5103467;28;20054;-72
2022/10/30 02:36:48;;;;;;;21.35;8.80;;;;;;;15.49;100.00;101292.09;5101897;28;20644;-72
2022/10/30 02:39:14;;;;;;;23.63;8.00;;;;;;;15.46;100.00;101310.47;5099719;28;20051;-75
2022/10/30 02:41:41;;;;;;;25.70;9.27;;;;;;;15.47;100.00;101314.06;5102099;28;20040;-72
2022/10/30 02:44:07;;;;;;;28.67;9.57;;;;;;;15.47;100.00;101319.63;5098662;28;20052;-75
2022/10/30 02:46:34;;;;;;;23.67;8.73;;;;;;;15.43;100.00;101325.25;5099140;28;20052;-71
2022/10/30 02:49:01;;;;;;;20.80;9.02;;;;;;;15.39;100.00;101321.72;5102044;28;20051;-72
2022/10/30 02:51:30;;;;;;;19.65;8.18;;;;;;;15.36;100.00;101319.75;5106030;28;20048;-71
2022/10/30 02:53:59;;;;;;;19.23;8.75;;;;;;;15.39;100.00;101326.50;5092462;28;20120;-71
2022/10/30 02:56:26;;;;;;;25.33;9.10;;;;;;;15.38;100.00;101334.06;5105900;28;20040;-74
2022/10/30 02:58:54;;;;;;;25.20;9.02;;;;;;;15.36;100.00;101330.91;5103624;28;20058;-73
2022/10/30 03:01:21;;;;;;;20.40;8.32;;;;;;;15.33;100.00;101323.34;5101952;28;20480;-74
2022/10/30 03:03:47;;;;;;;16.85;7.93;;;;;;;15.30;100.00;101331.75;5102829;28;20112;-75
2022/10/30 03:06:15;;;;;;;25.50;8.63;;;;;;;15.30;100.00;101326.19;5099649;28;20054;-72
2022/10/30 03:08:43;;;;;;;23.55;8.73;;;;;;;15.28;100.00;101326.59;5099375;28;20046;-72
2022/10/30 03:11:19;;;;;;;23.33;8.65;;;;;;;15.28;100.00;101331.34;5103317;28;20063;-71
2022/10/30 03:13:47;;;;;;;22.65;10.15;;;;;;;15.26;100.00;101333.78;5092902;28;20484;-75
2022/10/30 03:16:22;;;;;;;24.98;8.60;;;;;;;15.20;100.00;101333.44;5108509;28;20051;-72
2022/10/30 03:18:54;;;;;;;22.92;8.57;;;;;;;15.18;100.00;101338.63;5107055;28;20048;-74
2022/10/30 03:21:23;;;;;;;19.27;8.30;;;;;;;15.14;100.00;101326.75;5102935;28;20052;-72
2022/10/30 03:23:50;;;;;;;19.85;8.48;;;;;;;15.11;100.00;101335.13;5103309;28;20035;-74
2022/10/30 03:26:17;;;;;;;24.67;9.05;;;;;;;15.10;100.00;101341.91;5095395;28;20105;-74
2022/10/30 03:28:44;;;;;;;29.30;9.40;;;;;;;15.08;100.00;101338.72;5106733;28;20047;-74
2022/10/30 03:31:13;;;;;;;21.15;8.93;;;;;;;15.07;100.00;101331.59;5104267;28;20048;-71
2022/10/30 03:33:40;;;;;;;24.92;8.85;;;;;;;15.08;100.00;101339.53;5108218;28;20046;-73
2022/10/30 03:36:09;;;;;;;26.83;8.38;;;;;;;15.08;100.00;101333.97;5102857;28;20465;-73
2022/10/30 03:38:36;;;;;;;23.65;9.02;;;;;;;15.10;100.00;101337.13;5110346;28;20043;-74
2022/10/30 03:41:03;;;;;;;23.02;9.73;;;;;;;15.11;100.00;101337.91;5097455;28;20254;-73
2022/10/30 03:43:30;;;;;;;23.52;7.95;;;;;;;15.08;100.00;101336.75;5103162;28;20039;-73
2022/10/30 03:45:56;;;;;;;23.42;8.15;;;;;;;14.99;100.00;101339.22;5102108;28;20097;-71
2022/10/30 03:48:25;;;;;;;27.52;9.05;;;;;;;14.93;100.00;101343.66;5102290;28;20562;-74
2022/10/30 03:50:58;;;;;;;20.42;8.23;;;;;;;14.91;100.00;101346.06;5108270;28;20051;-71
2022/10/30 03:53:27;;;;;;;23.15;8.35;;;;;;;14.93;100.00;101345.66;5101271;28;20054;-73
2022/10/30 03:56:14;;;;;;;23.80;7.70;;;;;;;14.89;100.00;101342.88;5110559;28;20071;-73
2022/10/30 03:58:40;;;;;;;21.30;7.50;;;;;;;14.91;100.00;101345.25;5106411;28;20047;-73
2022/10/30 04:01:08;;;;;;;18.48;8.23;;;;;;;14.86;100.00;101343.72;5106495;28;20428;-73
2022/10/30 04:03:35;;;;;;;24.67;9.50;;;;;;;14.88;100.00;101351.66;5107293;28;20057;-73
2022/10/30 04:06:02;;;;;;;19.33;8.02;;;;;;;14.85;100.00;101341.34;5108271;28;20043;-72
2022/10/30 04:08:31;;;;;;;23.10;9.50;;;;;;;14.82;100.00;101348.53;5099913;28;20050;-74
2022/10/30 04:10:58;;;;;;;23.23;8.32;;;;;;;14.79;100.00;101343.75;5108182;28;20051;-74
2022/10/30 04:13:24;;;;;;;24.25;8.45;;;;;;;14.76;100.00;101344.63;5106548;28;20042;-73
2022/10/30 04:15:51;;;;;;;21.90;8.60;;;;;;;14.70;100.00;101351.81;5106835;28;20066;-73
2022/10/30 04:18:24;;;;;;;20.98;7.90;;;;;;;14.66;100.00;101350.25;5102368;28;20055;-73
2022/10/30 04:20:50;;;;;;;22.10;8.45;;;;;;;14.63;100.00;101337.16;5107580;28;20039;-72
2022/10/30 04:23:19;;;;;;;20.58;8.10;;;;;;;14.66;100.00;101344.69;5109449;28;20040;-75
2022/10/30 04:25:45;;;;;;;17.45;7.32;;;;;;;14.65;100.00;101359.81;5110176;28;20059;-73
2022/10/30 04:28:12;;;;;;;19.63;8.98;;;;;;;14.59;100.00;101353.09;5097231;28;20058;-73
2022/10/30 04:30:39;;;;;;;20.17;8.85;;;;;;;14.59;100.00;101351.13;5097136;28;20044;-73
2022/10/30 04:33:09;;;;;;;18.90;7.90;;;;;;;14.58;100.00;101352.28;5098243;28;20529;-73
2022/10/30 04:35:40;;;;;;;19.48;7.78;;;;;;;14.56;100.00;101357.50;5104444;28;20051;-74
2022/10/30 04:38:09;;;;;;;17.67;7.68;;;;;;;14.52;100.00;101351.13;5101783;28;20059;-72
2022/10/30 04:40:38;;;;;;;19.75;7.55;;;;;;;14.51;100.00;101348.78;5092994;28;20512;-74
2022/10/30 04:43:06;;;;;;;20.33;7.53;;;;;;;14.53;100.00;101351.94;5102384;27;20062;-74
2022/10/30 04:45:33;;;;;;;23.52;9.55;;;;;;;14.48;100.00;101344.81;5089834;28;20574;-73
2022/10/30 04:48:20;;;;;;;18.45;7.75;;;;;;;14.33;100.00;101360.03;5098764;28;20113;-74
2022/10/30 04:50:47;;;;;;;19.75;8.05;;;;;;;14.29;100.00;101359.28;5096525;28;20048;-74
2022/10/30 04:53:26;;;;;;;20.48;7.72;;;;;;;14.27;100.00;101361.66;5101062;28;20092;-71
2022/10/30 04:55:53;;;;;;;21.00;8.45;;;;;;;14.26;100.00;101351.72;5088984;28;20032;-74
2022/10/30 04:58:20;;;;;;;19.35;7.30;;;;;;;14.26;100.00;101357.28;5104189;28;20050;-73
2022/10/30 05:00:46;;;;;;;36.88;10.57;;;;;;;14.27;100.00;101355.28;5098590;28;20051;-73
2022/10/30 05:03:21;;;;;;;20.75;7.32;;;;;;;14.28;100.00;101359.69;5102759;28;20073;-73
2022/10/30 05:05:56;;;;;;;20.60;7.80;;;;;;;14.29;100.00;101347.34;5097408;28;20040;-71
2022/10/30 05:08:23;;;;;;;22.20;7.65;;;;;;;14.23;100.00;101344.19;5107552;28;20052;-73
2022/10/30 05:10:49;;;;;;;24.33;9.07;;;;;;;14.19;100.00;101337.81;5088603;28;20051;-73
2022/10/30 05:13:16;;;;;;;32.13;10.60;;;;;;;14.16;100.00;101338.63;5094512;28;20052;-73
2022/10/30 05:15:42;;;;;;;23.27;7.85;;;;;;;14.12;100.00;101332.31;5095459;28;20066;-74
2022/10/30 05:18:09;;;;;;;20.55;8.95;;;;;;;14.09;100.00;101333.13;5105766;28;20047;-74
2022/10/30 05:20:35;;;;;;;26.08;8.25;;;;;;;14.05;100.00;101335.13;5091733;28;20134;-73
2022/10/30 05:23:02;;;;;;;17.00;7.65;;;;;;;14.05;100.00;101337.09;5095419;28;20036;-75
2022/10/30 05:25:29;;;;;;;23.30;7.82;;;;;;;14.02;100.00;101327.59;5105411;28;20051;-74
2022/10/30 05:28:03;;;;;;;21.95;7.65;;;;;;;14.00;100.00;101326.41;5093937;28;20399;-72
2022/10/30 05:30:31;;;;;;;23.93;8.87;;;;;;;13.99;100.00;101341.50;5099634;28;20046;-74
2022/10/30 05:33:10;;;;;;;21.42;8.32;;;;;;;13.97;100.00;101338.34;5102860;28;20654;-73
2022/10/30 05:35:37;;;;;;;21.25;8.10;;;;;;;13.94;100.00;101328.81;5104933;28;20548;-71
2022/10/30 05:38:06;;;;;;;21.70;10.55;;;;;;;13.94;100.00;101330.81;5093778;28;20047;-74
2022/10/30 05:40:33;;;;;;;23.98;8.35;;;;;;;13.89;100.00;101322.88;5091641;28;20048;-74
2022/10/30 05:43:00;;;;;;;22.65;8.48;;;;;;;13.80;100.00;101317.75;5105396;28;20044;-73
2022/10/30 05:45:36;;;;;;;22.45;7.78;;;;;;;13.81;100.00;101322.13;5098674;28;20043;-71
2022/10/30 05:48:04;;;;;;;;;;;;;;;13.77;100.00;101323.34;5104765;28;20043;-72
2022/10/30 05:50:34;;;;;;;22.23;7.40;;;;;;;13.77;100.00;101320.56;5090730;28;19928;-71
2022/10/30 05:53:03;;;;;;;25.33;8.20;;;;;;;13.72;100.00;101323.75;5093014;28;20108;-71
2022/10/30 05:55:29;;;;;;;21.83;7.90;;;;;;;13.67;100.00;101318.63;5107626;28;20562;-71
2022/10/30 05:58:04;;;;;;;18.73;8.10;;;;;;;13.65;100.00;101313.47;5094383;28;20047;-71
2022/10/30 06:00:33;;;;;;;24.67;8.67;;;;;;;13.66;100.00;101315.03;5099283;28;20039;-71
2022/10/30 06:03:05;;;;;;;18.63;8.05;;;;;;;13.65;100.00;101315.44;5099407;28;20604;-74
2022/10/30 06:05:34;;;;;;;25.35;8.00;;;;;;;13.63;100.00;101318.63;5095927;28;20079;-73
2022/10/30 06:08:03;;;;;;;21.55;7.93;;;;;;;13.61;100.00;101315.47;5095472;27;20504;-73
2022/10/30 06:10:30;;;;;;;26.60;8.65;;;;;;;13.61;100.00;101318.25;5093572;28;20109;-73
2022/10/30 06:12:59;;;;;;;25.10;9.20;;;;;;;13.60;100.00;101322.22;5098947;28;20054;-73
2022/10/30 06:15:28;;;;;;;20.25;8.55;;;;;;;13.53;100.00;101319.47;5107862;28;20036;-73
2022/10/30 06:17:55;;;;;;;22.75;8.68;;;;;;;13.46;100.00;101327.81;5101503;28;20419;-73
2022/10/30 06:20:25;;;;;;;17.98;7.97;;;;;;;13.33;100.00;101323.13;5096972;28;20048;-73
2022/10/30 06:23:05;;;;;;;22.33;8.50;;;;;;;13.29;100.00;101334.22;5099232;28;20054;-72
2022/10/30 06:25:34;;;;;;;20.67;9.02;;;;;;;13.30;100.00;101330.28;5101208;28;20457;-73
2022/10/30 06:28:08;;;;;;;27.70;9.85;;;;;;;13.35;100.00;101331.81;5098192;27;20048;-72
2022/10/30 06:30:34;;;;;;;22.73;8.60;;;;;;;13.38;100.00;101334.59;5115731;27;20456;-73
2022/10/30 06:33:03;;;;;;;27.85;9.95;;;;;;;13.38;100.00;101344.91;5114611;27;20046;-72
2022/10/30 06:35:30;;;;;;;24.48;8.23;;;;;;;13.38;100.00;101345.72;5105558;27;20490;-73
2022/10/30 06:37:59;;;;;;;22.50;9.10;;;;;;;13.36;100.00;101339.75;5108385;28;20048;-73
2022/10/30 06:40:27;;;;;;;21.40;9.30;;;;;;;13.37;100.00;101337.78;5103804;28;20187;-73
2022/10/30 06:42:53;;;;;;;22.77;8.13;;;;;;;13.43;100.00;101348.09;5094656;28;20043;-74
2022/10/30 06:45:22;;;;;;;24.48;8.55;;;;;;;13.43;100.00;101356.41;5104882;28;20039;-73
2022/10/30 06:47:49;;;;;;;22.60;9.38;;;;;;;13.41;100.00;101356.03;5104192;28;20055;-73
2022/10/30 06:50:18;;;;;;;20.88;8.95;;;;;;;13.34;100.00;101347.72;5089779;28;20051;-73
2022/10/30 06:52:45;;;;;;;23.40;8.80;;;;;;;13.35;100.00;101357.63;5095219;28;20071;-74
2022/10/30 06:55:12;;;;;;;21.30;8.98;;;;;;;13.38;100.00;101358.81;5096920;28;20118;-74
2022/10/30 06:57:39;;;;;;;27.75;9.20;;;;;;;13.40;100.00;101356.44;5096747;28;20043;-75
2022/10/30 07:00:07;;;;;;;18.33;9.20;;;;;;;13.44;100.00;101349.69;5099223;28;20480;-73
2022/10/30 07:02:34;;;;;;;18.55;8.65;;;;;;;13.50;100.00;101345.28;5107125;28;20048;-74
2022/10/30 07:05:06;;;;;;;26.80;8.70;;;;;;;13.52;100.00;101348.47;5097247;28;20047;-71
2022/10/30 07:07:33;;;;;;;24.98;8.95;;;;;;;13.53;100.00;101355.59;5097522;28;20504;-73
2022/10/30 07:09:59;;;;;;;24.50;8.98;;;;;;;13.55;100.00;101358.78;5102531;28;20047;-74
2022/10/30 07:12:26;;;;;;;21.40;8.68;;;;;;;13.57;100.00;101361.94;5092505;28;20051;-73
2022/10/30 07:14:53;;;;;;;23.50;9.50;;;;;;;13.58;100.00;101344.06;5092464;28;20098;-73
2022/10/30 07:17:19;;;;;;;23.20;9.52;;;;;;;13.62;100.00;101347.63;5094192;28;20454;-72
2022/10/30 07:19:45;;;;;;;19.63;8.45;;;;;;;13.65;100.00;101355.19;5094196;28;20048;-73
2022/10/30 07:22:12;;;;;;;19.95;7.95;;;;;;;13.69;100.00;101367.06;5102898;28;20044;-74
2022/10/30 07:24:38;;;;;;;21.02;8.55;;;;;;;13.74;100.00;101357.53;5092055;28;20043;-74
2022/10/30 07:27:05;;;;;;;25.10;9.00;;;;;;;13.80;100.00;101358.69;5097526;28;20062;-74
2022/10/30 07:29:31;;;;;;;22.50;9.68;;;;;;;13.85;100.00;101361.84;5096833;28;20048;-73
2022/10/30 07:32:00;;;;;;;19.85;9.77;;;;;;;13.88;100.00;101366.63;5100151;28;20044;-73
2022/10/30 07:34:29;;;;;;;24.08;8.75;;;;;;;13.93;100.00;101363.41;5099449;28;20075;-73
2022/10/30 07:36:55;;;;;;;21.40;9.07;;;;;;;13.99;100.00;101364.56;5098698;28;20116;-72
2022/10/30 07:39:22;;;;;;;22.20;9.57;;;;;;;14.05;100.00;101371.31;5098138;28;20059;-74
2022/10/30 07:41:52;;;;;;;19.90;9.57;;;;;;;14.13;100.00;101372.84;5099896;28;20043;-72
2022/10/30 07:44:18;;;;;;;19.60;8.98;;;;;;;14.20;100.00;101378.38;5100319;28;20055;-71
2022/10/30 07:46:45;;;;;;;29.10;10.40;;;;;;;14.24;100.00;101373.59;5104441;28;20044;-75
2022/10/30 07:49:11;;;;;;;21.17;9.52;;;;;;;14.30;100.00;101369.19;5095383;28;20078;-73
2022/10/30 07:51:38;;;;;;;22.48;9.15;;;;;;;14.39;100.00;101372.34;5106105;28;20043;-75
2022/10/30 07:54:04;;;;;;;24.52;9.32;;;;;;;14.48;100.00;101366.31;5098570;28;20051;-73
2022/10/30 07:56:31;;;;;;;23.95;9.65;;;;;;;14.52;100.00;101361.50;5100867;28;20054;-75
2022/10/30 07:58:57;;;;;;;21.77;8.98;;;;;;;14.61;100.00;101362.63;5100492;28;20044;-72
2022/10/30 08:01:24;;;;;;;18.73;8.70;;;;;;;14.69;100.00;101364.16;5100482;28;20055;-73
2022/10/30 08:03:50;;;;;;;23.45;9.25;;;;;;;14.73;100.00;101351.00;5109612;28;20051;-72
2022/10/30 08:06:17;;;;;;;20.58;9.05;;;;;;;14.85;100.00;101363.66;5100136;28;20047;-73
2022/10/30 08:08:50;;;;;;;20.80;8.63;;;;;;;14.95;100.00;101360.75;5097253;28;20051;-75
2022/10/30 08:11:16;;;;;;;18.42;8.63;;;;;;;15.04;100.00;101355.50;5096807;28;20530;-76
2022/10/30 08:13:43;;;;;;;19.15;8.60;;;;;;;15.15;100.00;101360.97;5100243;28;20059;-75
2022/10/30 08:16:09;;;;;;;21.17;8.85;;;;;;;15.25;100.00;101366.44;5097064;28;20503;-74
2022/10/30 08:18:41;;;;;;;24.33;8.82;;;;;;;15.31;100.00;101364.78;5106514;28;20457;-73
2022/10/30 08:21:08;;;;;;;21.05;8.93;;;;;;;15.43;100.00;101361.50;5095610;27;20564;-75
2022/10/30 08:23:34;;;;;;;23.60;10.35;;;;;;;15.57;100.00;101356.97;5092358;28;20047;-72
2022/10/30 08:26:01;;;;;;;21.23;8.98;;;;;;;15.71;100.00;101363.19;5106998;27;20046;-74
2022/10/30 08:28:27;;;;;;;20.52;8.85;;;;;;;15.86;100.00;101358.22;5103773;28;20054;-73
2022/10/30 08:30:59;;;;;;;28.50;9.32;;;;;;;16.02;100.00;101350.03;5093579;28;20552;-73
2022/10/30 08:33:26;;;;;;;26.55;11.88;;;;;;;16.18;100.00;101351.00;5105045;28;20511;-74
2022/10/30 08:35:55;;;;;;;24.92;9.25;;;;;;;16.35;100.00;101351.97;5091685;28;20062;-72
2022/10/30 08:38:22;;;;;;;26.75;9.40;;;;;;;16.52;100.00;101356.53;5098664;28;20055;-73
2022/10/30 08:40:49;;;;;;;18.92;8.77;;;;;;;16.72;100.00;101340.63;5094269;28;20052;-75
2022/10/30 08:43:15;;;;;;;19.13;9.23;;;;;;;16.87;100.00;101334.38;5097882;28;20070;-75
2022/10/30 08:45:42;;;;;;;28.35;9.63;;;;;;;17.07;100.00;101335.22;5099290;28;20102;-74
2022/10/30 08:48:10;;;;;;;29.08;8.65;;;;;;;17.24;100.00;101319.34;5097357;28;20058;-74
2022/10/30 08:50:37;;;;;;;24.27;9.15;;;;;;;17.44;100.00;101329.38;5104323;28;20073;-73
2022/10/30 08:53:07;;;;;;;19.02;8.05;;;;;;;17.64;100.00;101335.78;5105882;28;20055;-73
2022/10/30 08:55:34;;;;;;;18.27;7.97;;;;;;;17.82;100.00;101336.19;5108151;28;20044;-73
2022/10/30 08:58:00;;;;;;;18.20;7.45;;;;;;;18.00;100.00;101333.00;5088178;28;20465;-72
2022/10/30 09:00:27;;;;;;;23.33;8.07;;;;;;;18.21;100.00;101323.34;5093866;28;20052;-72
2022/10/30 09:02:54;;;;;;;20.85;7.25;;;;;;;18.41;100.00;101324.09;5098598;28;20640;-73
2022/10/30 09:05:21;;;;;;;31.40;10.60;;;;;;;18.60;100.00;101323.25;5094164;28;20051;-74
2022/10/30 09:07:48;;;;;;;20.05;7.45;;;;;;;18.80;100.00;101321.16;5090299;28;20180;-73
2022/10/30 09:10:15;;;;;;;24.15;7.20;;;;;;;18.98;100.00;101329.91;5097780;28;20644;-75
2022/10/30 09:12:41;;;;;;;26.38;7.35;;;;;;;19.17;100.00;101332.56;5105639;28;20528;-74
2022/10/30 09:15:08;;;;;;;24.02;7.60;;;;;;;19.33;100.00;101332.56;5100992;28;20044;-74
2022/10/30 09:17:34;;;;;;;19.55;7.32;;;;;;;19.49;100.00;101326.94;5099180;28;20466;-73
2022/10/30 09:20:01;;;;;;;23.98;7.82;;;;;;;19.68;100.00;101317.53;5097937;28;20050;-73
2022/10/30 09:22:28;;;;;;;20.30;7.15;;;;;;;19.85;100.00;101327.47;5091035;28;20109;-74
2022/10/30 09:24:54;;;;;;;17.02;6.47;;;;;;;20.02;100.00;101334.56;5095247;28;20500;-71
2022/10/30 09:27:20;;;;;;;21.83;6.82;;;;;;;20.24;100.00;101321.50;5088065;28;20052;-72
2022/10/30 09:29:47;;;;;;;29.33;7.63;;;;;;;20.43;100.00;101323.28;5100910;28;20108;-74
2022/10/30 09:32:13;;;;;;;16.27;6.55;;;;;;;20.66;100.00;101329.78;5099272;28;20059;-73
2022/10/30 09:34:40;;;;;;;20.70;6.40;;;;;;;20.81;100.00;101323.25;5105325;28;20164;-73
2022/10/30 09:37:07;;;;;;;18.85;6.88;;;;;;;20.97;100.00;101320.31;5101573;27;20416;-70
2022/10/30 09:39:33;;;;;;;21.58;6.30;;;;;;;21.13;100.00;101310.94;5109136;27;20048;-71
2022/10/30 09:42:06;;;;;;;18.77;5.72;;;;;;;21.36;100.00;101313.34;5097265;28;20067;-71
2022/10/30 09:44:54;;;;;;;15.82;5.78;;;;;;;21.61;100.00;101302.72;5107070;28;20044;-73
2022/10/30 09:47:40;;;;;;;20.73;6.80;;;;;;;21.86;100.00;101301.81;5088596;28;20460;-73
2022/10/30 09:50:10;;;;;;;19.17;5.75;;;;;;;22.00;98.50;101307.69;5092185;28;20074;-74
2022/10/30 09:52:52;;;;;;;17.02;5.53;;;;;;;22.16;100.00;101309.50;5099750;28;20048;-74
2022/10/30 09:55:44;;;;;;;24.45;6.30;;;;;;;22.28;97.97;101302.97;5091012;28;20075;-73
2022/10/30 09:58:23;;;;;;;18.30;5.65;;;;;;;22.46;99.57;101300.22;5089359;28;20063;-73
2022/10/30 10:00:52;;;;;;;21.88;6.00;;;;;;;22.69;98.21;101292.00;5096058;28;20047;-73
2022/10/30 10:03:31;;;;;;;21.55;6.00;;;;;;;22.91;94.74;101285.47;5069194;28;20112;-74
2022/10/30 10:05:59;;;;;;;20.42;4.90;;;;;;;;;;5067650;28;20055;-74
2022/10/30 10:08:32;;;;;;;21.45;6.32;;;;;;;23.22;94.20;101297.41;5084916;27;20080;-74
2022/10/30 10:11:07;;;;;;;23.73;5.88;;;;;;;23.36;92.64;101297.59;5089588;27;20051;-74
2022/10/30 10:13:40;;;;;;;15.40;5.37;;;;;;;23.60;90.20;101309.03;5083840;27;20370;-72
2022/10/30 10:16:21;;;;;;;21.65;5.47;;;;;;;23.73;84.62;101313.28;5084071;27;21121;-71
2022/10/30 10:19:08;;;;;;;16.80;5.68;;;;;;;23.96;85.81;101306.94;5078366;28;20059;-74
2022/10/30 10:21:41;;;;;;;19.65;5.55;;;;;;;24.14;83.67;101306.91;5081491;28;20054;-74
2022/10/30 10:24:33;;;;;;;20.27;5.85;;;;;;;24.23;81.87;101300.44;5086564;27;20055;-74
2022/10/30 10:27:38;;;;;;;17.95;5.32;;;;;;;24.47;80.21;101301.28;5079466;27;20048;-73
2022/10/30 10:30:19;;;;;;;17.65;5.38;;;;;;;24.63;73.21;101298.84;5012854;28;20049;-71
2022/10/30 10:33:03;;;;;;;17.65;5.40;;;;;;;24.90;76.53;101293.00;5066408;28;20882;-71
2022/10/30 10:35:50;;;;;;;18.05;4.40;;;;;;;24.97;66.93;101301.13;5072460;28;20051;-75
2022/10/30 10:38:22;;;;;;;14.15;4.32;;;;;;;25.22;72.04;101299.88;5069405;28;20071;-72
2022/10/30 10:40:51;;;;;;;15.98;4.70;;;;;;;25.39;66.43;101295.34;5068713;28;20744;-73
2022/10/30 10:43:24;;;;;;;15.98;4.18;;;;;;;25.23;62.95;101297.78;5080740;28;20059;-73
2022/10/30 10:46:21;;;;;;;15.75;5.20;;;;;;;25.39;62.06;101288.88;5073140;28;20116;-71
2022/10/30 10:49:25;;;;;;;17.92;5.53;;;;;;;25.40;59.25;101281.94;5077677;28;20051;-71
2022/10/30 10:52:08;;;;;;;15.65;5.00;;;;;;;25.90;60.72;101277.97;5082338;28;20070;-72
2022/10/30 10:54:43;;;;;;;14.88;4.97;;;;;;;26.25;59.88;101281.69;5072252;28;20044;-71
2022/10/30 10:57:31;;;;;;;14.20;4.38;;;;;;;26.12;54.31;101281.22;5070298;28;20043;-72
2022/10/30 11:00:03;;;;;;;15.50;5.13;;;;;;;25.93;56.01;101279.84;5079578;28;20055;-72
2022/10/30 11:02:57;;;;;;;18.92;4.72;;;;;;;25.98;56.53;101273.53;5072781;28;20058;-72
2022/10/30 11:05:47;;;;;;;21.27;5.90;;;;;;;26.53;54.96;101274.38;5080044;28;20919;-71
2022/10/30 11:08:18;;;;;;;12.70;4.28;;;;;;;26.58;51.98;101270.81;5074082;28;20930;-74
2022/10/30 11:10:55;;;;;;;22.90;5.85;;;;;;;26.46;52.85;101261.38;5072819;28;20059;-74
2022/10/30 11:13:23;;;;;;;16.80;4.78;;;;;;;26.64;51.09;101264.00;5081583;28;20051;-74
2022/10/30 11:15:56;;;;;;;22.67;5.15;;;;;;;26.73;52.33;101268.75;5079419;28;20048;-74
2022/10/30 11:18:23;;;;;;;27.98;5.22;;;;;;;26.81;49.87;101261.38;5075470;28;20052;-73
2022/10/30 11:20:50;;;;;;;17.35;4.60;;;;;;;27.20;50.80;101271.94;5076339;28;20047;-73
2022/10/30 11:23:33;;;;;;;16.92;4.90;;;;;;;27.57;50.10;101255.03;5077725;28;20922;-74
2022/10/30 11:26:03;;;;;;;16.42;4.43;;;;;;;28.02;48.35;101265.59;5077376;28;20059;-72
2022/10/30 11:28:47;;;;;;;15.27;5.32;;;;;;;28.38;45.74;101255.50;5075567;28;20054;-72